createdAt,value
2023-05-12T00:01:55.226Z,98139.94
2023-05-12T00:06:13.458Z,98147.31
2023-05-12T00:10:31.510Z,98154.22
2023-05-12T00:14:48.941Z,98153.75
2023-05-12T00:19:06.617Z,98159.44
2023-05-12T00:23:24.285Z,98153.06
2023-05-12T00:27:41.951Z,98159.22
2023-05-12T00:31:59.914Z,98159.44
2023-05-12T00:36:17.576Z,98167.16
2023-05-12T00:40:35.184Z,98158.09
2023-05-12T00:44:52.902Z,98159.13
2023-05-12T00:49:10.931Z,98159.13
2023-05-12T00:53:37.631Z,98165.13
2023-05-12T00:58:03.008Z,98160.91
2023-05-12T01:02:21.709Z,98172.59
2023-05-12T01:06:49.440Z,98164.53
2023-05-12T01:11:07.290Z,98169.19
2023-05-12T01:15:24.955Z,98170.34
2023-05-12T01:19:52.921Z,98176.00
2023-05-12T01:24:12.455Z,98161.59
2023-05-12T01:28:30.204Z,98169.19
2023-05-12T01:32:47.776Z,98171.22
2023-05-12T01:37:05.713Z,98168.28
2023-05-12T01:41:23.206Z,98169.19
2023-05-12T01:45:40.976Z,98167.28
2023-05-12T01:49:58.503Z,98169.75
2023-05-12T01:54:16.228Z,98170.19
2023-05-12T01:58:33.878Z,98171.34
2023-05-12T02:02:51.830Z,98171.22
2023-05-12T02:07:10.262Z,98170.78
2023-05-12T02:11:27.783Z,98168.59
2023-05-12T02:15:46.054Z,98167.94
2023-05-12T02:20:05.426Z,98171.44
2023-05-12T02:24:23.075Z,98169.09
2023-05-12T02:28:41.185Z,98171.81
2023-05-12T02:32:58.733Z,98170.19
2023-05-12T02:37:16.299Z,98168.38
2023-05-12T02:41:34.353Z,98174.16
2023-05-12T02:45:52.144Z,98171.00
2023-05-12T02:50:10.058Z,98169.41
2023-05-12T02:54:27.855Z,98175.97
2023-05-12T02:58:46.004Z,98184.03
2023-05-12T03:03:04.027Z,98177.09
2023-05-12T03:07:21.879Z,98168.81
2023-05-12T03:11:39.571Z,98181.97
2023-05-12T03:16:01.547Z,98174.75
2023-05-12T03:20:20.544Z,98180.28
2023-05-12T03:24:38.526Z,98181.63
2023-05-12T03:28:56.059Z,98188.44
2023-05-12T03:33:13.782Z,98179.28
2023-05-12T03:37:31.511Z,98189.13
2023-05-12T03:41:49.123Z,98177.53
2023-05-12T03:46:06.656Z,98180.06
2023-05-12T03:50:24.500Z,98184.84
2023-05-12T03:54:42.112Z,98195.25
2023-05-12T03:58:59.839Z,98188.56
2023-05-12T04:03:35.620Z,98185.84
2023-05-12T04:07:53.792Z,98193.69
2023-05-12T04:12:11.514Z,98194.13
2023-05-12T04:16:29.500Z,98199.44
2023-05-12T04:20:47.069Z,98202.16
2023-05-12T04:25:05.188Z,98196.16
2023-05-12T04:29:23.004Z,98207.97
2023-05-12T04:33:40.966Z,98205.13
2023-05-12T04:37:58.513Z,98204.78
2023-05-12T04:42:16.188Z,98204.78
2023-05-12T04:46:33.776Z,98201.84
2023-05-12T04:50:51.662Z,98212.50
2023-05-12T04:55:09.868Z,98213.19
2023-05-12T04:59:27.417Z,98216.25
2023-05-12T05:03:45.170Z,98222.25
2023-05-12T05:08:03.080Z,98216.59
2023-05-12T05:12:20.981Z,98223.53
2023-05-12T05:16:39.251Z,98221.50
2023-05-12T05:20:58.781Z,98222.19
2023-05-12T05:25:17.221Z,98227.97
2023-05-12T05:29:34.742Z,98224.56
2023-05-12T05:33:52.439Z,98222.50
2023-05-12T05:38:10.040Z,98229.34
2023-05-12T05:42:27.682Z,98234.75
2023-05-12T05:46:45.227Z,98235.44
2023-05-12T05:51:03.130Z,98238.06
2023-05-12T05:55:22.004Z,98240.22
2023-05-12T05:59:40.089Z,98242.72
2023-05-12T06:03:57.933Z,98247.94
2023-05-12T06:08:16.616Z,98253.25
2023-05-12T06:12:34.171Z,98251.69
2023-05-12T06:16:52.307Z,98259.28
2023-05-12T06:21:09.847Z,98248.94
2023-05-12T06:25:27.815Z,98254.94
2023-05-12T06:29:45.452Z,98259.97
2023-05-12T06:34:03.883Z,98252.91
2023-05-12T06:38:21.375Z,98257.34
2023-05-12T06:42:39.108Z,98260.84
2023-05-12T06:46:57.575Z,98266.66
2023-05-12T06:51:15.230Z,98266.31
2023-05-12T06:55:32.769Z,98259.03
2023-05-12T06:59:51.022Z,98261.00
2023-05-12T07:04:08.713Z,98270.59
2023-05-12T07:08:28.279Z,98265.53
2023-05-12T07:12:45.932Z,98270.16
2023-05-12T07:17:04.385Z,98263.25
2023-05-12T07:21:22.114Z,98270.84
2023-05-12T07:25:40.368Z,98274.94
2023-05-12T07:29:57.938Z,98279.03
2023-05-12T07:34:15.703Z,98273.91
2023-05-12T07:38:33.289Z,98271.53
2023-05-12T07:42:51.272Z,98282.19
2023-05-12T07:47:08.915Z,98280.50
2023-05-12T07:51:26.690Z,98288.44
2023-05-12T07:55:44.344Z,98277.19
2023-05-12T08:00:03.249Z,98284.13
2023-05-12T08:04:22.474Z,98290.94
2023-05-12T08:08:40.018Z,98290.69
2023-05-12T08:12:57.988Z,98294.00
2023-05-12T08:17:15.668Z,98291.28
2023-05-12T08:21:33.275Z,98293.75
2023-05-12T08:25:51.017Z,98300.44
2023-05-12T08:30:09.886Z,98310.09
2023-05-12T08:34:27.972Z,98297.50
2023-05-12T08:38:45.392Z,98306.44
2023-05-12T08:43:30.359Z,98304.31
2023-05-12T08:47:48.134Z,98311.13
2023-05-12T08:52:06.732Z,98305.44
2023-05-12T09:00:46.438Z,98305.75
2023-05-12T09:05:04.327Z,98308.16
2023-05-12T09:09:22.393Z,98310.88
2023-05-12T09:14:08.845Z,98315.66
2023-05-12T09:18:26.549Z,98308.25
2023-05-12T09:22:44.086Z,98310.09
2023-05-12T09:27:02.015Z,98312.25
2023-05-12T09:31:24.788Z,98303.13
2023-05-12T09:35:46.647Z,98305.41
2023-05-12T09:40:06.917Z,98308.94
2023-05-12T09:44:25.879Z,98309.47
2023-05-12T09:48:43.436Z,98308.09
2023-05-12T09:53:02.032Z,98302.38
2023-05-12T09:57:23.133Z,98309.78
2023-05-12T10:01:41.490Z,98316.22
2023-05-12T10:06:04.154Z,98309.13
2023-05-12T10:10:26.419Z,98317.63
2023-05-12T10:14:44.484Z,98319.41
2023-05-12T10:19:03.558Z,98317.63
2023-05-12T10:23:21.572Z,98326.03
2023-05-12T10:27:39.834Z,98313.13
2023-05-12T10:31:58.102Z,98315.81
2023-05-12T10:36:20.884Z,98321.53
2023-05-12T10:40:58.353Z,98323.50
2023-05-12T10:45:18.800Z,98325.44
2023-05-12T10:49:41.983Z,98339.94
2023-05-12T10:54:05.288Z,98327.19
2023-05-12T10:58:23.085Z,98326.88
2023-05-12T11:02:51.197Z,98322.31
2023-05-12T11:07:12.178Z,98302.00
2023-05-12T11:11:30.612Z,98329.97
2023-05-12T11:15:48.216Z,98311.22
2023-05-12T11:20:06.703Z,98340.59
2023-05-12T11:24:24.804Z,98333.44
2023-05-12T11:28:42.548Z,98354.47
2023-05-12T11:33:02.636Z,98360.13
2023-05-12T11:37:23.379Z,98348.84
2023-05-12T11:41:41.513Z,98329.59
2023-05-12T11:46:00.068Z,98357.72
2023-05-12T11:50:23.401Z,98363.50
2023-05-12T11:55:06.691Z,98345.47
2023-05-12T11:59:33.568Z,98383.31
2023-05-12T12:03:53.628Z,98368.28
2023-05-12T12:08:17.010Z,98389.84
2023-05-12T12:12:34.526Z,98446.13
2023-05-12T12:16:52.080Z,98438.56
2023-05-12T12:21:09.660Z,98404.06
2023-05-12T12:25:27.355Z,98428.72
2023-05-12T12:29:44.848Z,98456.94
2023-05-12T12:34:04.102Z,98447.06
2023-05-12T12:38:21.802Z,98394.25
2023-05-12T12:42:41.185Z,98406.72
2023-05-12T12:46:58.979Z,98380.63
2023-05-12T12:51:16.716Z,98384.31
2023-05-12T12:55:34.409Z,98371.06
2023-05-12T12:59:51.980Z,98381.72
2023-05-12T13:04:09.614Z,98385.81
2023-05-12T13:08:27.448Z,98380.19
2023-05-12T13:12:45.277Z,98377.56
2023-05-12T13:17:02.784Z,98584.88
2023-05-12T13:21:23.127Z,98644.22
2023-05-12T13:25:40.847Z,98734.72
2023-05-12T13:29:58.561Z,98881.22
2023-05-12T13:34:16.094Z,99084.31
2023-05-12T13:38:34.182Z,98771.47
2023-05-12T13:42:51.960Z,98845.00
2023-05-12T13:47:10.517Z,98341.00
2023-05-12T13:51:28.241Z,98872.56
2023-05-12T13:55:45.981Z,98381.78
2023-05-12T14:00:04.734Z,98737.63
2023-05-12T14:04:23.859Z,99496.97
2023-05-12T14:08:41.943Z,99571.75
2023-05-12T14:12:59.722Z,99503.19
2023-05-12T14:17:17.919Z,99393.19
2023-05-12T14:21:35.722Z,99262.69
2023-05-12T14:25:53.382Z,98397.53
2023-05-12T14:30:11.528Z,98387.53
2023-05-12T14:34:29.063Z,98361.44
2023-05-12T14:38:46.596Z,98345.59
2023-05-12T14:43:05.023Z,98332.81
2023-05-12T14:47:22.674Z,98332.75
2023-05-12T14:51:41.675Z,98322.69
2023-05-12T14:55:59.198Z,98325.72
2023-05-12T15:00:17.520Z,98317.50
2023-05-12T15:04:35.389Z,98310.38
2023-05-12T15:08:53.276Z,98310.66
2023-05-12T15:13:12.748Z,98309.81
2023-05-12T15:17:30.998Z,98304.03
2023-05-12T15:21:48.565Z,98319.81
2023-05-12T15:26:26.848Z,98302.41
2023-05-12T15:30:45.682Z,98300.44
2023-05-12T15:35:03.710Z,98295.38
2023-05-12T15:39:21.884Z,98311.78
2023-05-12T15:43:41.367Z,98288.81
2023-05-12T15:47:59.185Z,98311.88
2023-05-12T15:52:16.896Z,98310.84
2023-05-12T15:56:34.383Z,98304.34
2023-05-12T16:00:54.745Z,98305.59
2023-05-12T16:05:12.591Z,98300.22
2023-05-12T16:09:30.261Z,98296.84
2023-05-12T16:13:47.880Z,98299.34
2023-05-12T16:18:09.157Z,98296.91
2023-05-12T16:22:28.558Z,98291.41
2023-05-12T16:26:46.264Z,98301.16
2023-05-12T16:31:04.732Z,98300.06
2023-05-12T16:35:23.310Z,98312.81
2023-05-12T16:39:40.619Z,98308.19
2023-05-12T16:43:58.565Z,98309.59
2023-05-12T16:48:16.438Z,98308.22
2023-05-12T16:52:35.725Z,98302.09
2023-05-12T17:01:11.025Z,98301.97
2023-05-12T17:05:28.596Z,98310.22
2023-05-12T17:09:46.542Z,98312.88
2023-05-12T17:14:05.077Z,98307.47
2023-05-12T17:18:25.140Z,98304.16
2023-05-12T17:22:44.552Z,98304.94
2023-05-12T17:27:02.276Z,98312.34
2023-05-12T17:31:20.206Z,98305.91
2023-05-12T17:35:37.896Z,98316.19
2023-05-12T17:39:55.429Z,98304.97
2023-05-12T17:44:13.067Z,98318.00
2023-05-12T17:48:34.015Z,98322.00
2023-05-12T17:52:54.966Z,98326.00
2023-05-12T17:57:12.445Z,98329.59
2023-05-12T18:01:31.023Z,98331.75
2023-05-12T18:05:48.878Z,98333.94
2023-05-12T18:10:11.779Z,98332.22
2023-05-12T18:14:30.747Z,98330.97
2023-05-12T18:18:49.045Z,98339.50
2023-05-12T18:23:07.081Z,98340.06
2023-05-12T18:27:24.685Z,98340.09
2023-05-12T18:31:44.282Z,98346.09
2023-05-12T18:36:03.284Z,98348.47
2023-05-12T18:40:20.962Z,98352.22
2023-05-12T18:44:40.916Z,98355.97
2023-05-12T18:48:58.464Z,98363.00
2023-05-12T18:53:16.293Z,98359.47
2023-05-12T18:57:34.358Z,98361.63
2023-05-12T19:01:52.004Z,98372.66
2023-05-12T19:06:09.811Z,98377.53
2023-05-12T19:10:27.612Z,98377.53
2023-05-12T19:14:45.340Z,98375.13
2023-05-12T19:19:03.184Z,98382.53
2023-05-12T19:23:21.389Z,98377.75
2023-05-12T19:27:38.576Z,98379.00
2023-05-12T19:31:56.516Z,98378.22
2023-05-12T19:36:14.027Z,98383.22
2023-05-12T19:40:32.487Z,98389.34
2023-05-12T19:44:50.312Z,98391.81
2023-05-12T19:49:07.920Z,98389.00
2023-05-12T19:53:25.858Z,98396.25
2023-05-12T19:57:44.116Z,98398.78
2023-05-12T20:02:03.073Z,98391.28
2023-05-12T20:06:22.561Z,98396.06
2023-05-12T20:10:40.467Z,98400.47
2023-05-12T20:14:58.051Z,98396.59
2023-05-12T20:19:15.780Z,98398.06
2023-05-12T20:23:33.495Z,98391.38
2023-05-12T20:27:51.399Z,98388.31
2023-05-12T20:32:08.949Z,98382.75
2023-05-12T20:36:26.585Z,98382.41
2023-05-12T20:40:43.807Z,98380.03
2023-05-12T20:45:01.925Z,98379.81
2023-05-12T20:49:19.792Z,98378.78
2023-05-12T20:53:37.430Z,98375.25
2023-05-12T20:57:55.679Z,98375.34
2023-05-12T21:02:13.273Z,98380.03
2023-05-12T21:06:31.105Z,98376.63
2023-05-12T21:10:49.016Z,98381.03
2023-05-12T21:15:10.740Z,98382.97
2023-05-12T21:19:28.314Z,98382.75
2023-05-12T21:23:46.632Z,98388.41
2023-05-12T21:28:06.814Z,98394.91
2023-05-12T21:32:25.008Z,98386.16
2023-05-12T21:36:42.717Z,98386.81
2023-05-12T21:41:01.513Z,98382.38
2023-05-12T21:45:21.613Z,98388.41
2023-05-12T21:49:39.348Z,98387.06
2023-05-12T21:53:57.132Z,98385.56
2023-05-12T21:58:15.369Z,98381.81
2023-05-12T22:02:32.861Z,98390.31
2023-05-12T22:06:51.026Z,98389.41
2023-05-12T22:11:09.117Z,98380.56
2023-05-12T22:15:26.767Z,98385.56
2023-05-12T22:19:44.604Z,98387.94
2023-05-12T22:24:02.258Z,98394.63
2023-05-12T22:28:19.841Z,98391.34
2023-05-12T22:32:37.642Z,98402.47
2023-05-12T22:36:55.268Z,98390.09
2023-05-12T22:41:12.933Z,98388.97
2023-05-12T22:45:30.968Z,98397.47
2023-05-12T22:49:48.717Z,98388.72
2023-05-12T22:54:06.280Z,98389.97
2023-05-12T22:58:24.141Z,98393.72
2023-05-12T23:02:41.212Z,98395.75
2023-05-12T23:06:58.916Z,98396.19
2023-05-12T23:11:16.757Z,98384.97
2023-05-12T23:15:34.288Z,98396.00
2023-05-12T23:19:55.117Z,98390.19
2023-05-12T23:24:12.639Z,98395.72
2023-05-12T23:28:30.378Z,98394.63
2023-05-12T23:32:50.588Z,98385.28
2023-05-12T23:37:08.676Z,98388.94
2023-05-12T23:41:26.301Z,98391.78
2023-05-12T23:45:46.707Z,98384.94
2023-05-12T23:50:04.682Z,98385.84
2023-05-12T23:54:22.505Z,98385.41
2023-05-12T23:58:43.043Z,98385.84
